createdAt,value
2022-08-05T00:00:16.163Z,23.64
2022-08-05T00:02:50.794Z,23.56
2022-08-05T00:06:02.632Z,23.57
2022-08-05T00:08:35.113Z,23.52
2022-08-05T00:10:54.901Z,23.46
2022-08-05T00:13:38.421Z,23.41
2022-08-05T00:16:08.768Z,23.49
2022-08-05T00:18:38.168Z,23.45
2022-08-05T00:21:06.744Z,23.38
2022-08-05T00:23:46.229Z,23.35
2022-08-05T00:26:22.298Z,23.29
2022-08-05T00:28:50.332Z,23.23
2022-08-05T00:31:41.440Z,23.23
2022-08-05T00:34:54.740Z,23.27
2022-08-05T00:37:12.889Z,23.26
2022-08-05T00:39:44.245Z,23.20
2022-08-05T00:42:33.336Z,23.28
2022-08-05T00:45:00.938Z,23.21
2022-08-05T00:47:53.113Z,23.17
2022-08-05T00:50:17.393Z,23.16
2022-08-05T00:52:45.488Z,23.07
2022-08-05T00:55:14.921Z,23.07
2022-08-05T00:57:58.100Z,23.05
2022-08-05T01:00:26.796Z,22.98
2022-08-05T01:02:54.541Z,23.00
2022-08-05T01:05:23.942Z,23.05
2022-08-05T01:08:40.528Z,23.02
2022-08-05T01:10:52.412Z,22.96
2022-08-05T01:13:27.168Z,23.00
2022-08-05T01:16:00.310Z,23.05
2022-08-05T01:18:33.999Z,23.03
2022-08-05T01:21:12.269Z,22.98
2022-08-05T01:24:03.261Z,22.89
2022-08-05T01:26:56.145Z,22.86
2022-08-05T01:29:30.782Z,22.82
2022-08-05T01:32:03.497Z,22.74
2022-08-05T01:34:36.043Z,22.67
2022-08-05T01:37:09.026Z,22.68
2022-08-05T01:39:47.092Z,22.64
2022-08-05T01:42:18.285Z,22.59
2022-08-05T01:44:54.240Z,22.65
2022-08-05T01:47:23.811Z,22.63
2022-08-05T01:50:00.113Z,22.62
2022-08-05T01:52:32.215Z,22.61
2022-08-05T01:55:04.699Z,22.55
2022-08-05T01:58:09.487Z,22.52
2022-08-05T02:00:30.595Z,22.56
2022-08-05T02:03:03.656Z,22.55
2022-08-05T02:05:35.969Z,22.56
2022-08-05T02:08:04.845Z,22.55
2022-08-05T02:10:41.533Z,22.55
2022-08-05T02:13:16.029Z,22.48
2022-08-05T02:15:48.620Z,22.44
2022-08-05T02:18:32.645Z,22.52
2022-08-05T02:21:14.998Z,22.59
2022-08-05T02:23:45.974Z,22.51
2022-08-05T02:26:17.207Z,22.44
2022-08-05T02:28:47.322Z,22.34
2022-08-05T02:31:28.426Z,22.33
2022-08-05T02:34:04.514Z,22.40
2022-08-05T02:36:35.626Z,22.45
2022-08-05T02:39:08.675Z,22.44
2022-08-05T02:41:43.161Z,22.41
2022-08-05T02:44:27.234Z,22.30
2022-08-05T02:47:00.186Z,22.25
2022-08-05T02:49:36.548Z,22.19
2022-08-05T02:52:08.829Z,22.16
2022-08-05T02:54:41.496Z,22.16
2022-08-05T02:58:09.708Z,22.18
2022-08-05T03:00:01.708Z,22.17
2022-08-05T03:02:35.454Z,22.21
2022-08-05T03:05:04.094Z,22.12
2022-08-05T03:08:00.670Z,22.18
2022-08-05T03:10:24.853Z,22.16
2022-08-05T03:12:53.463Z,22.16
2022-08-05T03:15:23.392Z,22.15
2022-08-05T03:17:54.248Z,22.13
2022-08-05T03:20:24.542Z,22.09
2022-08-05T03:22:53.143Z,22.07
2022-08-05T03:25:33.533Z,22.02
2022-08-05T03:28:13.905Z,22.11
2022-08-05T03:30:42.437Z,22.12
2022-08-05T03:33:11.843Z,22.14
2022-08-05T03:35:41.450Z,22.24
2022-08-05T03:38:11.695Z,22.25
2022-08-05T03:40:41.411Z,22.25
2022-08-05T03:43:58.688Z,22.20
2022-08-05T03:46:01.388Z,22.12
2022-08-05T03:48:35.613Z,22.11
2022-08-05T03:52:50.354Z,22.19
2022-08-05T03:56:02.018Z,22.27
2022-08-05T03:56:58.805Z,22.27
2022-08-05T03:59:46.841Z,22.28
2022-08-05T04:02:37.604Z,22.33
2022-08-05T04:05:09.876Z,22.31
2022-08-05T04:07:57.053Z,22.37
2022-08-05T04:10:28.300Z,22.46
2022-08-05T04:12:59.830Z,22.81
2022-08-05T04:15:32.966Z,23.31
2022-08-05T04:18:07.304Z,23.93
2022-08-05T04:20:38.456Z,24.45
2022-08-05T04:23:12.553Z,25.08
2022-08-05T04:26:00.372Z,25.75
2022-08-05T04:28:31.743Z,26.51
2022-08-05T04:31:00.959Z,27.22
2022-08-05T04:34:17.011Z,27.86
2022-08-05T04:36:49.871Z,28.64
2022-08-05T04:39:06.489Z,29.27
2022-08-05T04:41:36.893Z,29.95
2022-08-05T04:44:09.477Z,30.50
2022-08-05T04:46:37.951Z,31.05
2022-08-05T04:49:05.777Z,31.48
2022-08-05T04:51:41.277Z,32.04
2022-08-05T04:54:10.273Z,32.60
2022-08-05T04:56:39.566Z,33.16
2022-08-05T04:59:21.663Z,33.76
2022-08-05T05:02:06.712Z,33.97
2022-08-05T05:04:36.010Z,34.09
2022-08-05T05:07:09.338Z,33.92
2022-08-05T05:09:37.269Z,33.43
2022-08-05T05:12:06.394Z,33.10
2022-08-05T05:14:36.269Z,32.85
2022-08-05T05:17:07.572Z,31.81
2022-08-05T05:19:44.218Z,32.26
2022-08-05T05:22:23.672Z,32.85
2022-08-05T05:24:58.946Z,32.63
2022-08-05T05:27:45.168Z,32.23
2022-08-05T05:30:31.542Z,26.64
2022-08-05T05:33:08.783Z,27.05
2022-08-05T05:35:42.613Z,27.72
2022-08-05T05:38:12.921Z,26.29
2022-08-05T05:40:50.039Z,26.58
2022-08-05T05:43:27.646Z,27.67
2022-08-05T05:46:13.817Z,29.91
2022-08-05T05:48:44.230Z,32.11
2022-08-05T05:51:15.414Z,34.17
2022-08-05T05:53:54.111Z,35.89
2022-08-05T05:56:31.564Z,36.14
2022-08-05T05:59:03.604Z,34.95
2022-08-05T06:01:37.641Z,34.23
2022-08-05T06:04:06.108Z,33.38
2022-08-05T06:06:34.824Z,33.00
2022-08-05T06:09:05.033Z,33.38
2022-08-05T06:11:32.962Z,33.55
2022-08-05T06:14:00.777Z,34.45
2022-08-05T06:16:36.702Z,35.82
2022-08-05T06:19:07.536Z,36.24
2022-08-05T06:21:37.530Z,36.68
2022-08-05T06:24:12.133Z,36.59
2022-08-05T06:26:51.451Z,36.75
2022-08-05T06:29:26.489Z,37.28
2022-08-05T06:32:25.101Z,37.17
2022-08-05T06:34:56.605Z,37.23
2022-08-05T06:37:56.546Z,37.29
2022-08-05T06:40:18.050Z,36.83
2022-08-05T06:42:48.893Z,36.81
2022-08-05T06:45:21.360Z,36.62
2022-08-05T06:48:47.061Z,36.91
2022-08-05T06:50:55.475Z,37.79
2022-08-05T06:53:27.718Z,38.26
2022-08-05T06:55:58.138Z,37.91
2022-08-05T06:58:34.939Z,35.92
2022-08-05T07:01:06.944Z,36.27
2022-08-05T07:03:35.220Z,37.38
2022-08-05T07:06:05.757Z,37.77
2022-08-05T07:08:41.886Z,36.11
2022-08-05T07:11:15.069Z,35.43
2022-08-05T07:14:00.919Z,34.85
2022-08-05T07:17:57.100Z,35.01
2022-08-05T07:22:28.420Z,34.51
2022-08-05T07:24:59.251Z,34.30
2022-08-05T07:27:56.574Z,33.33
2022-08-05T07:30:28.428Z,32.49
2022-08-05T07:32:58.493Z,34.22
2022-08-05T07:35:55.908Z,34.68
2022-08-05T07:38:26.226Z,34.05
2022-08-05T07:41:16.577Z,32.96
2022-08-05T07:43:51.609Z,32.85
2022-08-05T07:46:25.197Z,32.99
2022-08-05T07:49:01.879Z,31.42
2022-08-05T07:51:37.044Z,30.63
2022-08-05T07:54:09.661Z,29.07
2022-08-05T07:57:00.476Z,29.70
2022-08-05T07:59:38.928Z,29.49
2022-08-05T08:02:16.001Z,29.40
2022-08-05T08:04:45.746Z,30.10
2022-08-05T08:07:13.559Z,29.02
2022-08-05T08:09:41.126Z,29.53
2022-08-05T08:12:19.878Z,29.86
2022-08-05T08:14:57.801Z,30.85
2022-08-05T08:17:30.513Z,30.40
2022-08-05T08:20:22.113Z,30.14
2022-08-05T08:22:51.804Z,30.86
2022-08-05T08:25:27.126Z,30.01
2022-08-05T08:28:07.059Z,30.66
2022-08-05T08:30:49.581Z,30.59
2022-08-05T08:33:17.631Z,30.24
2022-08-05T08:35:53.112Z,30.67
2022-08-05T08:38:35.262Z,31.03
2022-08-05T08:41:06.722Z,30.21
2022-08-05T08:45:18.161Z,30.23
2022-08-05T08:46:28.031Z,29.19
2022-08-05T08:49:06.196Z,29.99
2022-08-05T08:52:05.537Z,30.04
2022-08-05T08:54:34.071Z,31.48
2022-08-05T08:57:06.374Z,30.17
2022-08-05T08:59:42.057Z,30.66
2022-08-05T09:02:18.917Z,30.40
2022-08-05T09:04:58.604Z,30.84
2022-08-05T09:07:40.135Z,31.59
2022-08-05T09:10:27.020Z,31.10
2022-08-05T09:12:55.767Z,30.48
2022-08-05T09:15:23.748Z,30.38
2022-08-05T09:17:54.449Z,30.00
2022-08-05T09:20:37.450Z,30.49
2022-08-05T09:23:19.948Z,30.82
2022-08-05T09:26:02.613Z,30.47
2022-08-05T09:28:33.634Z,30.05
2022-08-05T09:31:22.732Z,30.43
2022-08-05T09:33:56.484Z,30.37
2022-08-05T09:36:27.828Z,30.48
2022-08-05T09:39:04.102Z,31.48
2022-08-05T09:41:59.715Z,31.17
2022-08-05T09:44:37.940Z,31.56
2022-08-05T09:47:14.101Z,31.99
2022-08-05T09:50:00.576Z,30.70
2022-08-05T09:52:31.039Z,31.36
2022-08-05T09:55:55.371Z,31.02
2022-08-05T09:57:48.384Z,30.53
2022-08-05T10:00:17.930Z,30.37
2022-08-05T10:02:49.185Z,29.98
2022-08-05T10:05:20.052Z,30.10
2022-08-05T10:08:36.830Z,30.74
2022-08-05T10:10:50.397Z,30.81
2022-08-05T10:13:45.779Z,30.94
2022-08-05T10:16:34.171Z,31.22
2022-08-05T10:19:08.627Z,31.79
2022-08-05T10:21:40.339Z,31.76
2022-08-05T10:24:10.919Z,31.44
2022-08-05T10:26:49.070Z,30.65
2022-08-05T10:29:23.541Z,29.60
2022-08-05T10:33:01.487Z,30.11
2022-08-05T10:35:00.801Z,30.24
2022-08-05T10:37:40.297Z,31.10
2022-08-05T10:40:27.804Z,32.31
2022-08-05T10:43:07.266Z,32.09
2022-08-05T10:45:42.185Z,32.15
2022-08-05T10:48:35.268Z,31.95
2022-08-05T10:51:22.224Z,32.92
2022-08-05T10:53:58.586Z,33.51
2022-08-05T10:56:30.590Z,33.09
2022-08-05T10:59:12.611Z,31.47
2022-08-05T11:02:08.579Z,32.41
2022-08-05T11:04:44.369Z,32.84
2022-08-05T11:07:15.455Z,32.59
2022-08-05T11:09:49.259Z,33.08
2022-08-05T11:12:54.405Z,33.35
2022-08-05T11:15:59.995Z,32.16
2022-08-05T11:18:26.867Z,32.40
2022-08-05T11:20:55.354Z,32.83
2022-08-05T11:23:49.797Z,34.46
2022-08-05T11:26:28.545Z,35.71
2022-08-05T11:29:11.691Z,34.66
2022-08-05T11:31:56.361Z,34.73
2022-08-05T11:34:39.754Z,32.28
2022-08-05T11:38:30.298Z,33.42
2022-08-05T11:40:00.700Z,33.06
2022-08-05T11:42:37.983Z,34.39
2022-08-05T11:45:14.506Z,33.67
2022-08-05T11:47:58.681Z,35.15
2022-08-05T11:50:26.752Z,33.80
2022-08-05T11:52:57.951Z,32.88
2022-08-05T11:55:32.164Z,34.16
2022-08-05T11:58:09.388Z,34.46
2022-08-05T12:00:41.171Z,34.39
2022-08-05T12:03:29.086Z,33.58
2022-08-05T12:06:00.688Z,34.32
2022-08-05T12:08:28.548Z,33.98
2022-08-05T12:11:05.473Z,33.70
2022-08-05T12:13:48.899Z,34.52
2022-08-05T12:16:19.866Z,35.99
2022-08-05T12:18:53.675Z,37.68
2022-08-05T12:21:24.176Z,37.24
2022-08-05T12:24:00.085Z,37.48
2022-08-05T12:26:32.894Z,37.87
2022-08-05T12:29:03.148Z,36.67
2022-08-05T12:31:40.618Z,36.28
2022-08-05T12:34:20.427Z,35.36
2022-08-05T12:36:50.663Z,36.38
2022-08-05T12:39:19.122Z,36.71
2022-08-05T12:41:46.877Z,38.09
2022-08-05T12:44:28.707Z,39.82
2022-08-05T12:47:02.437Z,40.83
2022-08-05T12:50:03.284Z,38.94
2022-08-05T12:52:33.908Z,35.94
2022-08-05T12:55:17.796Z,35.17
2022-08-05T12:58:50.349Z,35.00
2022-08-05T13:02:01.083Z,35.06
2022-08-05T13:03:32.073Z,34.79
2022-08-05T13:06:00.993Z,34.00
2022-08-05T13:08:32.435Z,34.24
2022-08-05T13:11:01.100Z,35.59
2022-08-05T13:14:05.712Z,35.76
2022-08-05T13:16:19.990Z,35.28
2022-08-05T13:18:54.950Z,36.40
2022-08-05T13:21:23.186Z,34.23
2022-08-05T13:23:56.297Z,34.03
2022-08-05T13:26:30.097Z,35.30
2022-08-05T13:28:59.287Z,34.79
2022-08-05T13:32:03.705Z,34.62
2022-08-05T13:34:21.945Z,35.39
2022-08-05T13:36:53.346Z,34.20
2022-08-05T13:40:13.489Z,35.24
2022-08-05T13:42:14.576Z,36.43
2022-08-05T13:44:45.371Z,35.03
2022-08-05T13:47:28.168Z,34.13
2022-08-05T13:50:09.547Z,34.93
2022-08-05T13:52:39.924Z,35.06
2022-08-05T13:55:09.687Z,35.87
2022-08-05T13:57:50.951Z,35.52
2022-08-05T14:00:27.655Z,35.91
2022-08-05T14:02:57.176Z,35.08
2022-08-05T14:05:48.107Z,35.16
2022-08-05T14:08:20.170Z,34.03
2022-08-05T14:10:48.262Z,33.72
2022-08-05T14:13:16.344Z,33.99
2022-08-05T14:16:07.267Z,34.30
2022-08-05T14:18:32.655Z,33.88
2022-08-05T14:21:00.323Z,34.42
2022-08-05T14:23:47.925Z,34.86
2022-08-05T14:26:35.822Z,36.89
2022-08-05T14:29:03.606Z,37.48
2022-08-05T14:32:03.832Z,34.86
2022-08-05T14:34:19.917Z,36.11
2022-08-05T14:36:51.391Z,35.85
2022-08-05T14:39:23.468Z,36.83
2022-08-05T14:42:16.687Z,36.81
2022-08-05T14:44:38.610Z,34.83
2022-08-05T14:47:06.403Z,35.49
2022-08-05T14:49:56.229Z,35.72
2022-08-05T14:52:50.073Z,35.97
2022-08-05T14:55:15.373Z,37.10
2022-08-05T14:57:54.823Z,37.70
2022-08-05T15:00:27.699Z,36.40
2022-08-05T15:02:55.985Z,34.96
2022-08-05T15:05:29.597Z,34.07
2022-08-05T15:08:11.407Z,34.40
2022-08-05T15:10:43.194Z,35.01
2022-08-05T15:13:13.649Z,34.33
2022-08-05T15:15:54.127Z,34.66
2022-08-05T15:18:22.347Z,34.37
2022-08-05T15:20:52.126Z,34.78
2022-08-05T15:23:20.036Z,34.73
2022-08-05T15:25:51.945Z,34.32
2022-08-05T15:28:27.148Z,33.63
2022-08-05T15:30:56.150Z,33.40
2022-08-05T15:34:18.849Z,33.52
2022-08-05T15:36:17.566Z,33.44
2022-08-05T15:41:04.793Z,34.01
2022-08-05T15:41:58.484Z,34.14
2022-08-05T15:44:27.506Z,33.56
2022-08-05T15:46:55.795Z,33.89
2022-08-05T15:49:53.644Z,34.34
2022-08-05T15:52:16.394Z,33.45
2022-08-05T15:54:45.021Z,32.84
2022-08-05T15:57:14.346Z,32.95
2022-08-05T15:59:43.844Z,33.50
2022-08-05T16:02:14.718Z,33.52
2022-08-05T16:04:47.208Z,33.54
2022-08-05T16:07:16.249Z,34.28
2022-08-05T16:09:45.558Z,34.36
2022-08-05T16:12:13.053Z,32.62
2022-08-05T16:14:43.538Z,32.80
2022-08-05T16:17:13.111Z,32.70
2022-08-05T16:20:05.075Z,32.68
2022-08-05T16:22:34.422Z,32.48
2022-08-05T16:25:07.859Z,32.71
2022-08-05T16:28:00.641Z,33.10
2022-08-05T16:30:26.615Z,33.44
2022-08-05T16:32:56.478Z,33.13
2022-08-05T16:35:27.855Z,33.09
2022-08-05T16:38:02.549Z,33.09
2022-08-05T16:40:51.636Z,34.30
2022-08-05T16:43:24.055Z,33.37
2022-08-05T16:46:03.824Z,33.09
2022-08-05T16:48:35.923Z,32.28
2022-08-05T16:51:08.712Z,32.36
2022-08-05T16:54:04.112Z,32.40
2022-08-05T16:56:29.184Z,32.20
2022-08-05T16:58:57.443Z,31.91
2022-08-05T17:01:25.120Z,32.01
2022-08-05T17:03:52.976Z,32.13
2022-08-05T17:06:20.457Z,31.76
2022-08-05T17:08:54.524Z,31.88
2022-08-05T17:11:23.945Z,32.18
2022-08-05T17:14:00.516Z,32.42
2022-08-05T17:16:36.541Z,32.82
2022-08-05T17:19:07.759Z,32.71
2022-08-05T17:21:39.700Z,32.65
2022-08-05T17:24:28.114Z,32.47
2022-08-05T17:26:57.914Z,31.60
2022-08-05T17:29:33.224Z,31.51
2022-08-05T17:32:01.662Z,31.34
2022-08-05T17:34:30.274Z,31.48
2022-08-05T17:37:00.178Z,31.54
2022-08-05T17:39:34.469Z,31.59
2022-08-05T17:42:17.324Z,31.77
2022-08-05T17:44:50.263Z,31.90
2022-08-05T17:47:22.573Z,31.99
2022-08-05T17:49:59.670Z,32.28
2022-08-05T17:52:30.784Z,31.68
2022-08-05T17:55:00.087Z,31.49
2022-08-05T17:57:27.891Z,31.40
2022-08-05T18:00:03.785Z,31.16
2022-08-05T18:02:33.270Z,31.12
2022-08-05T18:05:03.685Z,31.03
2022-08-05T18:07:41.954Z,30.98
2022-08-05T18:10:14.170Z,31.05
2022-08-05T18:12:49.344Z,30.90
2022-08-05T18:15:17.080Z,30.91
2022-08-05T18:18:00.598Z,30.92
2022-08-05T18:20:32.630Z,31.65
2022-08-05T18:23:09.587Z,31.82
2022-08-05T18:25:45.086Z,32.00
2022-08-05T18:28:16.574Z,32.14
2022-08-05T18:30:45.094Z,31.40
2022-08-05T18:33:13.712Z,29.99
2022-08-05T18:35:49.499Z,28.97
2022-08-05T18:38:27.250Z,28.64
2022-08-05T18:41:57.092Z,28.57
2022-08-05T18:43:49.149Z,28.54
2022-08-05T18:46:19.597Z,28.50
2022-08-05T18:48:51.973Z,28.39
2022-08-05T18:52:04.053Z,28.30
2022-08-05T18:54:25.626Z,28.26
2022-08-05T18:56:54.441Z,28.29
2022-08-05T18:59:42.025Z,28.32
2022-08-05T19:02:11.509Z,28.06
2022-08-05T19:05:02.477Z,28.01
2022-08-05T19:07:46.421Z,28.04
2022-08-05T19:10:14.776Z,28.03
2022-08-05T19:12:43.803Z,28.00
2022-08-05T19:15:58.045Z,27.92
2022-08-05T19:18:09.163Z,27.91
2022-08-05T19:20:41.742Z,27.74
2022-08-05T19:23:22.378Z,27.58
2022-08-05T19:26:01.643Z,27.57
2022-08-05T19:28:33.020Z,27.46
2022-08-05T19:31:01.039Z,27.40
2022-08-05T19:33:35.733Z,27.23
2022-08-05T19:36:06.146Z,27.04
2022-08-05T19:38:35.945Z,26.98
2022-08-05T19:41:07.288Z,26.85
2022-08-05T19:44:06.886Z,26.85
2022-08-05T19:46:29.207Z,26.62
2022-08-05T19:48:58.122Z,26.51
2022-08-05T19:51:59.778Z,26.47
2022-08-05T19:54:27.237Z,26.41
2022-08-05T19:56:59.355Z,26.33
2022-08-05T19:59:59.598Z,26.35
2022-08-05T20:02:17.388Z,26.25
2022-08-05T20:04:45.848Z,26.20
2022-08-05T20:07:14.061Z,26.15
2022-08-05T20:09:54.421Z,26.17
2022-08-05T20:12:23.743Z,26.15
2022-08-05T20:14:53.276Z,26.37
2022-08-05T20:17:23.561Z,26.03
2022-08-05T20:19:57.504Z,26.06
2022-08-05T20:22:27.302Z,25.91
2022-08-05T20:24:55.117Z,25.93
2022-08-05T20:27:27.050Z,25.92
2022-08-05T20:29:58.308Z,25.84
2022-08-05T20:32:27.574Z,25.75
2022-08-05T20:34:55.494Z,25.82
2022-08-05T20:38:04.796Z,25.80
2022-08-05T20:40:12.165Z,25.80
2022-08-05T20:42:39.713Z,25.57
2022-08-05T20:45:13.019Z,25.58
2022-08-05T20:47:40.557Z,25.51
2022-08-05T20:50:11.425Z,25.61
2022-08-05T20:52:41.374Z,25.49
2022-08-05T20:55:55.293Z,25.52
2022-08-05T20:57:57.233Z,25.31
2022-08-05T21:00:41.617Z,25.38
2022-08-05T21:03:13.524Z,25.40
2022-08-05T21:05:53.350Z,25.32
2022-08-05T21:08:26.617Z,25.32
2022-08-05T21:10:58.422Z,25.14
2022-08-05T21:13:47.539Z,25.13
2022-08-05T21:16:15.256Z,25.06
2022-08-05T21:18:45.191Z,25.06
2022-08-05T21:21:13.056Z,25.03
2022-08-05T21:23:40.548Z,24.94
2022-08-05T21:26:12.439Z,24.87
2022-08-05T21:28:47.944Z,24.91
2022-08-05T21:31:20.078Z,24.98
2022-08-05T21:33:49.607Z,24.96
2022-08-05T21:36:19.139Z,24.84
2022-08-05T21:38:55.562Z,24.94
2022-08-05T21:41:23.124Z,24.86
2022-08-05T21:44:01.666Z,25.01
2022-08-05T21:46:33.381Z,24.93
2022-08-05T21:49:02.250Z,24.81
2022-08-05T21:52:22.433Z,24.74
2022-08-05T21:54:30.726Z,24.89
2022-08-05T21:57:30.311Z,24.71
2022-08-05T22:00:03.297Z,24.74
2022-08-05T22:02:35.004Z,24.55
2022-08-05T22:05:04.387Z,24.04
2022-08-05T22:07:40.373Z,23.40
2022-08-05T22:10:26.603Z,22.87
2022-08-05T22:12:54.873Z,22.69
2022-08-05T22:16:01.425Z,22.58
2022-08-05T22:18:14.714Z,22.64
2022-08-05T22:20:44.116Z,22.70
2022-08-05T22:24:02.891Z,22.82
2022-08-05T22:26:34.218Z,23.08
2022-08-05T22:29:02.967Z,22.90
2022-08-05T22:31:31.591Z,22.68
2022-08-05T22:34:20.192Z,22.72
2022-08-05T22:36:56.099Z,22.44
2022-08-05T22:39:28.599Z,22.29
2022-08-05T22:42:10.273Z,22.33
2022-08-05T22:44:40.643Z,22.41
2022-08-05T22:47:11.179Z,22.37
2022-08-05T22:50:19.930Z,22.32
2022-08-05T22:52:32.244Z,22.20
2022-08-05T22:55:00.386Z,21.88
2022-08-05T22:57:36.302Z,21.59
2022-08-05T23:00:07.825Z,21.42
2022-08-05T23:02:36.177Z,21.26
2022-08-05T23:05:16.171Z,21.01
2022-08-05T23:07:45.100Z,20.68
2022-08-05T23:10:16.238Z,20.51
2022-08-05T23:12:48.004Z,20.31
2022-08-05T23:15:19.741Z,20.10
2022-08-05T23:18:01.263Z,20.02
2022-08-05T23:20:32.338Z,19.98
2022-08-05T23:23:00.028Z,19.83
2022-08-05T23:25:50.923Z,19.63
2022-08-05T23:28:15.804Z,19.60
2022-08-05T23:30:53.713Z,19.55
2022-08-05T23:34:02.742Z,19.51
2022-08-05T23:36:13.454Z,19.35
2022-08-05T23:38:41.768Z,19.20
2022-08-05T23:41:10.523Z,19.20
2022-08-05T23:44:05.897Z,19.23
2022-08-05T23:46:25.863Z,19.24
2022-08-05T23:48:59.943Z,19.30
2022-08-05T23:51:54.272Z,19.24
2022-08-05T23:54:33.989Z,19.34
2022-08-05T23:57:05.205Z,19.25
